Time;durP1;ratioP1;P1;durP2;ratioP2;P2;SDS_P1;SDS_P2;PMS_P1;PMS_P2;Temp;Humidity;BMP_temperature;BMP_pressure;BME280_temperature;BME280_humidity;BME280_pressure;Samples;Min_cycle;Max_cycle;Signal;HPM_P1;HPM_P2
2021/08/23 00:00:57;;;;;;;;;;;15.00;99.90;;;;;;5081729;28;20112;-61
2021/08/23 00:03:23;;;;;;;15.68;12.25;;;15.00;99.90;;;;;;5081564;28;20570;-61
2021/08/23 00:05:48;;;;;;;;;;;15.00;99.90;;;;;;5098478;28;20040;-61
2021/08/23 00:08:15;;;;;;;13.90;11.25;;;15.00;99.90;;;;;;5081818;28;19927;-61
2021/08/23 00:10:41;;;;;;;16.50;11.07;;;15.00;99.90;;;;;;5081494;28;20390;-61
2021/08/23 00:13:07;;;;;;;;;;;15.10;99.90;;;;;;5083166;28;20032;-61
2021/08/23 00:15:33;;;;;;;16.90;10.80;;;15.10;99.90;;;;;;5081597;28;20540;-61
2021/08/23 00:17:59;;;;;;;;;;;15.10;99.90;;;;;;5074339;28;20048;-61
2021/08/23 00:20:25;;;;;;;20.75;11.13;;;15.00;99.90;;;;;;5067686;28;20299;-61
2021/08/23 00:22:51;;;;;;;15.10;10.80;;;15.00;99.90;;;;;;5068583;28;20070;-62
2021/08/23 00:25:20;;;;;;;16.85;12.32;;;15.00;99.90;;;;;;5067718;28;20094;-61
2021/08/23 00:27:46;;;;;;;18.55;12.73;;;15.00;99.90;;;;;;5068297;28;20079;-61
2021/08/23 00:30:12;;;;;;;;;;;15.00;99.90;;;;;;5068178;28;20068;-62
2021/08/23 00:32:38;;;;;;;18.95;12.55;;;15.00;99.90;;;;;;5068594;28;20515;-61
2021/08/23 00:35:04;;;;;;;19.85;14.15;;;15.00;99.90;;;;;;5068498;28;20079;-61
2021/08/23 00:37:30;;;;;;;22.50;14.40;;;15.00;99.90;;;;;;5068877;28;20064;-61
2021/08/23 00:39:55;;;;;;;;;;;15.00;99.90;;;;;;5068488;28;20073;-61
2021/08/23 00:42:21;;;;;;;23.35;13.70;;;15.00;99.90;;;;;;5066176;28;19956;-61
2021/08/23 00:44:47;;;;;;;;;;;15.00;99.90;;;;;;5068527;28;20070;-61
2021/08/23 00:47:12;;;;;;;23.50;15.02;;;15.00;99.90;;;;;;5067589;28;20379;-62
2021/08/23 00:49:38;;;;;;;;;;;15.00;99.90;;;;;;5068343;28;20122;-61
2021/08/23 00:52:08;;;;;;;28.23;15.55;;;15.00;99.90;;;;;;5068354;28;19963;-61
2021/08/23 00:54:35;;;;;;;18.77;14.00;;;15.00;99.90;;;;;;5067355;28;20435;-61
2021/08/23 00:57:05;;;;;;;20.48;12.82;;;15.00;99.90;;;;;;5067594;28;20044;-61
2021/08/23 00:59:34;;;;;;;20.88;13.73;;;15.00;99.90;;;;;;5054617;28;20039;-62
2021/08/23 01:02:11;;;;;;;23.83;15.15;;;15.00;99.90;;;;;;5067606;28;20044;-62
2021/08/23 01:04:42;;;;;;;22.05;14.52;;;14.90;99.90;;;;;;5068636;28;20041;-61
2021/08/23 01:07:12;;;;;;;25.10;15.95;;;14.90;99.90;;;;;;5068302;28;20047;-61
2021/08/23 01:09:39;;;;;;;24.27;17.17;;;14.80;99.90;;;;;;5067484;28;20048;-61
2021/08/23 01:12:07;;;;;;;22.00;15.43;;;14.80;99.90;;;;;;5067191;28;20052;-61
2021/08/23 01:14:33;;;;;;;24.48;16.00;;;14.80;99.90;;;;;;5067498;28;20114;-62
2021/08/23 01:17:01;;;;;;;;;;;14.80;99.90;;;;;;5067188;28;20044;-61
2021/08/23 01:19:29;;;;;;;21.13;13.95;;;14.80;99.90;;;;;;5067564;28;19958;-61
2021/08/23 01:21:59;;;;;;;23.02;15.02;;;14.80;99.90;;;;;;5066711;28;20048;-61
2021/08/23 01:24:33;;;;;;;25.50;15.32;;;14.80;99.90;;;;;;5067149;28;20041;-60
2021/08/23 01:27:02;;;;;;;24.67;15.85;;;14.70;99.90;;;;;;5066198;28;20848;-61
2021/08/23 01:29:50;;;;;;;21.15;14.60;;;14.70;99.90;;;;;;5064725;28;20036;-61
2021/08/23 01:32:22;;;;;;;23.60;14.93;;;14.70;99.90;;;;;;5067080;28;20482;-60
2021/08/23 01:34:49;;;;;;;23.08;15.02;;;14.80;99.90;;;;;;5066889;28;20044;-61
2021/08/23 01:37:16;;;;;;;20.20;14.70;;;14.80;99.90;;;;;;5066675;28;20044;-61
2021/08/23 01:39:42;;;;;;;22.05;14.25;;;14.80;99.90;;;;;;5067576;28;20515;-61
2021/08/23 01:42:08;;;;;;;23.23;15.05;;;14.80;99.90;;;;;;5067292;28;20041;-61
2021/08/23 01:44:34;;;;;;;;;;;14.80;99.90;;;;;;5067937;28;20139;-60
2021/08/23 01:46:59;;;;;;;19.50;14.02;;;14.80;99.90;;;;;;5067049;28;19921;-61
2021/08/23 01:49:25;;;;;;;;;;;14.80;99.90;;;;;;5067042;28;20032;-60
2021/08/23 01:51:51;;;;;;;20.70;14.35;;;14.70;99.90;;;;;;5066636;28;19912;-61
2021/08/23 01:54:18;;;;;;;;;;;14.70;99.90;;;;;;5066868;28;20120;-61
2021/08/23 01:56:44;;;;;;;24.00;15.15;;;14.70;99.90;;;;;;5066694;28;20014;-61
2021/08/23 01:59:10;;;;;;;21.13;14.30;;;14.70;99.90;;;;;;5065299;28;20037;-61
2021/08/23 02:01:35;;;;;;;;;;;14.70;99.90;;;;;;5066609;28;20056;-61
2021/08/23 02:04:01;;;;;;;26.50;16.27;;;14.70;99.90;;;;;;5067234;28;19923;-61
2021/08/23 02:06:26;;;;;;;;;;;14.70;99.90;;;;;;5067068;28;20087;-61
2021/08/23 02:08:53;;;;;;;25.38;15.95;;;14.70;99.90;;;;;;5066851;28;19931;-61
2021/08/23 02:11:19;;;;;;;25.50;15.60;;;14.70;99.90;;;;;;5066448;28;20032;-61
2021/08/23 02:13:45;;;;;;;25.27;17.17;;;14.70;99.90;;;;;;5067086;28;20044;-61
2021/08/23 02:16:11;;;;;;;;;;;14.70;99.90;;;;;;5067114;28;20086;-62
2021/08/23 02:18:37;;;;;;;21.17;14.48;;;14.70;99.90;;;;;;5066458;28;20503;-61
2021/08/23 02:21:02;;;;;;;;;;;14.70;99.90;;;;;;5067374;28;20040;-61
2021/08/23 02:23:28;;;;;;;25.17;15.93;;;14.70;99.90;;;;;;5065012;28;20394;-62
2021/08/23 02:25:54;;;;;;;;;;;14.70;99.90;;;;;;5066550;28;20044;-61
2021/08/23 02:28:20;;;;;;;22.20;14.82;;;14.60;99.90;;;;;;5064971;28;19920;-61
2021/08/23 02:30:46;;;;;;;24.02;15.70;;;14.70;99.90;;;;;;5065911;28;20036;-63
2021/08/23 02:33:12;;;;;;;;;;;14.60;99.90;;;;;;5067159;28;20116;-62
2021/08/23 02:35:38;;;;;;;28.67;16.25;;;14.60;99.90;;;;;;5066745;28;19970;-62
2021/08/23 02:38:04;;;;;;;;;;;14.60;99.90;;;;;;5066226;28;20036;-62
2021/08/23 02:40:30;;;;;;;24.83;15.18;;;14.60;99.90;;;;;;5065513;28;19916;-62
2021/08/23 02:42:55;;;;;;;27.48;16.75;;;14.60;99.90;;;;;;5066124;28;20428;-62
2021/08/23 02:45:21;;;;;;;;;;;14.60;99.90;;;;;;5066287;28;20051;-62
2021/08/23 02:47:46;;;;;;;25.50;15.70;;;14.60;99.90;;;;;;5064062;28;19963;-62
2021/08/23 02:50:12;;;;;;;;;;;14.60;99.90;;;;;;5066450;28;20059;-61
2021/08/23 02:52:38;;;;;;;22.02;13.80;;;14.60;99.90;;;;;;5066405;28;19917;-62
2021/08/23 02:55:06;;;;;;;26.95;16.67;;;14.60;99.90;;;;;;5066766;28;20032;-62
2021/08/23 02:57:31;;;;;;;25.52;15.32;;;14.70;99.90;;;;;;5066104;28;20101;-61
2021/08/23 02:59:57;;;;;;;;;;;14.70;99.90;;;;;;5065884;28;20048;-62
2021/08/23 03:02:23;;;;;;;29.05;17.10;;;14.70;99.90;;;;;;5065620;28;19963;-62
2021/08/23 03:04:48;;;;;;;;;;;14.70;99.90;;;;;;5066523;28;20036;-61
2021/08/23 03:07:14;;;;;;;30.67;16.48;;;14.70;99.90;;;;;;5065218;28;19968;-61
2021/08/23 03:09:39;;;;;;;;;;;14.70;99.90;;;;;;5065325;28;20040;-62
2021/08/23 03:12:06;;;;;;;32.65;18.25;;;14.70;99.90;;;;;;5065068;28;19921;-62
2021/08/23 03:14:32;;;;;;;31.20;17.65;;;14.70;99.90;;;;;;5066501;28;20064;-62
2021/08/23 03:16:57;;;;;;;;;;;14.80;99.90;;;;;;5066020;28;20064;-62
2021/08/23 03:19:23;;;;;;;30.98;18.15;;;14.70;99.90;;;;;;5065852;28;20368;-62
2021/08/23 03:21:48;;;;;;;;;;;14.80;99.90;;;;;;5066349;28;20044;-63
2021/08/23 03:24:14;;;;;;;33.38;19.15;;;14.80;99.90;;;;;;5065989;28;19920;-62
2021/08/23 03:26:40;;;;;;;;;;;14.80;99.90;;;;;;5064694;28;20493;-62
2021/08/23 03:29:06;;;;;;;35.47;19.23;;;14.70;99.90;;;;;;5065998;28;19920;-63
2021/08/23 03:31:31;;;;;;;;;;;14.80;99.90;;;;;;5066045;28;20049;-63
2021/08/23 03:33:57;;;;;;;34.60;18.55;;;14.80;99.90;;;;;;5063878;28;20420;-62
2021/08/23 03:36:23;;;;;;;;;;;14.80;99.90;;;;;;5066382;28;20125;-62
2021/08/23 03:38:49;;;;;;;40.20;20.60;;;14.90;99.90;;;;;;5065403;28;20185;-62
2021/08/23 03:41:15;;;;;;;;;;;14.80;99.90;;;;;;5065085;28;20048;-62
2021/08/23 03:43:41;;;;;;;34.90;18.58;;;14.80;99.90;;;;;;5066154;28;19916;-63
2021/08/23 03:46:07;;;;;;;34.00;19.40;;;14.80;99.90;;;;;;5064875;28;20756;-63
2021/08/23 03:48:32;;;;;;;;;;;14.80;99.90;;;;;;5066117;28;20041;-63
2021/08/23 03:50:58;;;;;;;35.17;18.80;;;14.80;99.90;;;;;;5065762;28;20407;-62
2021/08/23 03:53:23;;;;;;;;;;;14.80;99.90;;;;;;5068153;28;20028;-62
2021/08/23 03:55:49;;;;;;;32.20;18.33;;;14.80;99.90;;;;;;5069332;28;19920;-62
2021/08/23 03:58:15;;;;;;;;;;;14.90;99.90;;;;;;5068961;28;20459;-62
2021/08/23 04:00:40;;;;;;;31.65;17.33;;;14.80;99.90;;;;;;5069352;28;19916;-62
2021/08/23 04:03:06;;;;;;;;;;;14.90;99.90;;;;;;5069836;28;20045;-62
2021/08/23 04:05:31;;;;;;;34.00;17.95;;;14.90;99.90;;;;;;5069760;28;19916;-62
2021/08/23 04:07:57;;;;;;;;;;;14.90;99.90;;;;;;5069837;28;20044;-62
2021/08/23 04:10:23;;;;;;;34.22;17.73;;;14.80;99.90;;;;;;5069049;28;19921;-65
2021/08/23 04:12:48;;;;;;;;;;;14.80;99.90;;;;;;5070161;28;20610;-66
2021/08/23 04:15:14;;;;;;;33.30;18.50;;;14.90;99.90;;;;;;5068376;28;20310;-62
2021/08/23 04:17:40;;;;;;;;;;;14.90;99.90;;;;;;5069777;28;20048;-63
2021/08/23 04:20:06;;;;;;;30.23;17.88;;;14.90;99.90;;;;;;5068573;28;19916;-61
2021/08/23 04:22:32;;;;;;;36.40;18.45;;;14.90;99.90;;;;;;5063260;28;20043;-62
2021/08/23 04:24:57;;;;;;;;;;;14.80;99.90;;;;;;5067370;28;20493;-62
2021/08/23 04:27:23;;;;;;;32.75;18.33;;;14.90;99.90;;;;;;5068853;28;19942;-62
2021/08/23 04:29:48;;;;;;;;;;;14.80;99.90;;;;;;5069755;28;20032;-62
2021/08/23 04:32:14;;;;;;;35.25;18.65;;;14.90;99.90;;;;;;5068523;28;19959;-62
2021/08/23 04:34:40;;;;;;;;;;;14.90;99.90;;;;;;5069716;28;20128;-62
2021/08/23 04:37:05;;;;;;;29.95;16.50;;;14.90;99.90;;;;;;5069116;28;19962;-62
2021/08/23 04:39:31;;;;;;;;;;;14.90;99.90;;;;;;5068655;28;20098;-62
2021/08/23 04:41:58;;;;;;;33.80;17.10;;;14.90;99.90;;;;;;5068741;28;19924;-62
2021/08/23 04:44:23;;;;;;;;;;;14.90;99.90;;;;;;5069438;28;20082;-62
2021/08/23 04:46:50;;;;;;;37.75;19.45;;;14.80;99.90;;;;;;5068878;28;19960;-62
2021/08/23 04:49:18;;;;;;;36.65;19.35;;;14.90;99.90;;;;;;5068670;28;20051;-62
2021/08/23 04:51:44;;;;;;;39.50;20.83;;;14.90;99.90;;;;;;5068558;28;20832;-62
2021/08/23 04:54:09;;;;;;;;;;;15.00;99.90;;;;;;5068946;28;20036;-62
2021/08/23 04:56:35;;;;;;;39.95;21.42;;;14.90;99.90;;;;;;5065482;28;19920;-62
2021/08/23 04:59:01;;;;;;;;;;;14.90;99.90;;;;;;5068936;28;20066;-62
2021/08/23 05:01:27;;;;;;;39.80;20.80;;;15.00;99.90;;;;;;5066825;28;19966;-62
2021/08/23 05:03:53;;;;;;;48.90;21.60;;;14.90;99.90;;;;;;5068466;28;20040;-62
2021/08/23 05:06:18;;;;;;;;;;;15.00;99.90;;;;;;5068998;28;20040;-62
2021/08/23 05:08:44;;;;;;;42.60;23.10;;;14.90;99.90;;;;;;5067837;28;19916;-62
2021/08/23 05:11:10;;;;;;;;;;;14.90;99.90;;;;;;5067646;28;20132;-63
2021/08/23 05:13:36;;;;;;;45.42;24.30;;;14.90;99.90;;;;;;5068738;28;20396;-62
2021/08/23 05:16:02;;;;;;;56.58;32.80;;;14.90;99.90;;;;;;5068249;28;20037;-62
2021/08/23 05:18:28;;;;;;;;;;;14.90;99.90;;;;;;5069037;28;20525;-62
2021/08/23 05:20:53;;;;;;;52.97;25.20;;;14.90;99.90;;;;;;5068722;28;20013;-63
2021/08/23 05:23:19;;;;;;;;;;;14.90;99.90;;;;;;5069489;28;20530;-62
2021/08/23 05:25:45;;;;;;;53.92;26.80;;;15.00;99.90;;;;;;5068841;28;20459;-62
2021/08/23 05:28:10;;;;;;;;;;;15.00;99.90;;;;;;5068798;28;20408;-62
2021/08/23 05:30:36;;;;;;;52.35;23.30;;;15.00;99.90;;;;;;5068280;28;20285;-62
2021/08/23 05:33:02;;;;;;;;;;;15.00;99.90;;;;;;5068453;28;20432;-62
2021/08/23 05:35:27;;;;;;;57.30;24.85;;;15.00;99.90;;;;;;5068624;28;19924;-62
2021/08/23 05:37:53;;;;;;;;;;;15.00;99.90;;;;;;5068295;28;20507;-62
2021/08/23 05:40:30;;;;;;;36.72;20.10;;;15.00;99.90;;;;;;5067886;28;20605;-62
2021/08/23 05:42:56;;;;;;;49.88;26.73;;;15.00;99.90;;;;;;5067635;28;20045;-62
2021/08/23 05:45:21;;;;;;;;;;;15.10;99.90;;;;;;5067911;28;20045;-63
2021/08/23 05:47:47;;;;;;;49.95;23.63;;;15.10;99.90;;;;;;5068406;28;19924;-62
2021/08/23 05:50:12;;;;;;;;;;;15.00;99.90;;;;;;5067889;28;20715;-63
2021/08/23 05:52:38;;;;;;;36.67;19.05;;;15.00;99.90;;;;;;5068209;28;19917;-62
2021/08/23 05:55:04;;;;;;;;;;;15.00;99.90;;;;;;5068034;28;20451;-62
2021/08/23 05:57:29;;;;;;;45.08;22.58;;;15.10;99.90;;;;;;5067435;28;20011;-62
2021/08/23 05:59:55;;;;;;;;;;;15.00;99.90;;;;;;5068032;28;20049;-62
2021/08/23 06:02:21;;;;;;;41.78;19.70;;;15.00;99.90;;;;;;5066291;28;19943;-62
2021/08/23 06:04:46;;;;;;;;;;;15.10;99.90;;;;;;5066903;28;20048;-63
2021/08/23 06:07:14;;;;;;;42.03;21.33;;;15.10;99.90;;;;;;5067169;28;20301;-63
2021/08/23 06:09:40;;;;;;;47.50;23.10;;;15.10;99.90;;;;;;5067224;28;20116;-62
2021/08/23 06:12:06;;;;;;;36.72;19.75;;;15.10;99.90;;;;;;5067147;28;20407;-63
2021/08/23 06:14:32;;;;;;;;;;;15.00;99.90;;;;;;5068328;28;20127;-62
2021/08/23 06:16:57;;;;;;;31.10;17.75;;;15.10;99.90;;;;;;5066221;28;19916;-62
2021/08/23 06:19:23;;;;;;;;;;;15.00;99.90;;;;;;5067561;28;20125;-62
2021/08/23 06:21:48;;;;;;;24.83;15.05;;;15.00;99.90;;;;;;5068550;28;19920;-62
2021/08/23 06:24:14;;;;;;;;;;;15.00;99.90;;;;;;5068273;28;20072;-62
2021/08/23 06:26:40;;;;;;;32.40;19.13;;;15.00;99.90;;;;;;5067646;28;20457;-63
2021/08/23 06:29:07;;;;;;;;;;;15.00;99.90;;;;;;5068154;28;20584;-63
2021/08/23 06:31:33;;;;;;;46.30;27.83;;;15.00;99.90;;;;;;5066850;28;20291;-63
2021/08/23 06:33:58;;;;;;;;;;;15.00;99.90;;;;;;5067620;28;20086;-63
2021/08/23 06:36:24;;;;;;;28.95;15.10;;;15.00;99.90;;;;;;5067948;28;20406;-63
2021/08/23 06:38:50;;;;;;;;;;;15.00;99.90;;;;;;5068250;28;20041;-62
2021/08/23 06:41:17;;;;;;;29.50;16.33;;;15.00;99.90;;;;;;5068428;28;19969;-62
2021/08/23 06:43:44;;;;;;;24.80;14.85;;;15.00;99.90;;;;;;5066472;28;20116;-63
2021/08/23 06:46:09;;;;;;;26.13;14.65;;;14.90;99.90;;;;;;5064752;28;20051;-63
2021/08/23 06:48:35;;;;;;;;;;;15.00;99.90;;;;;;5060033;28;20033;-63
2021/08/23 06:51:00;;;;;;;23.77;13.93;;;14.90;99.90;;;;;;5065141;28;20372;-64
2021/08/23 06:53:26;;;;;;;;;;;14.90;99.90;;;;;;5067800;28;20471;-63
2021/08/23 06:55:51;;;;;;;21.15;12.80;;;15.00;99.90;;;;;;5066973;28;19920;-64
2021/08/23 06:58:17;;;;;;;;;;;14.90;99.90;;;;;;5066885;28;20036;-63
2021/08/23 07:00:42;;;;;;;27.77;13.43;;;14.90;99.90;;;;;;5066134;28;20342;-63
2021/08/23 07:03:08;;;;;;;;;;;14.90;99.90;;;;;;5067829;28;20492;-63
2021/08/23 07:05:34;;;;;;;21.50;13.18;;;14.90;99.90;;;;;;5067014;28;19923;-63
2021/08/23 07:07:59;;;;;;;;;;;15.00;99.90;;;;;;5069646;28;20072;-62
2021/08/23 07:10:25;;;;;;;80.03;45.80;;;14.90;99.90;;;;;;5068697;28;19998;-65
2021/08/23 07:12:50;;;;;;;;;;;15.00;99.90;;;;;;5067175;28;20124;-63
2021/08/23 07:15:16;;;;;;;31.17;18.80;;;15.00;99.90;;;;;;5067144;28;19962;-63
2021/08/23 07:17:42;;;;;;;;;;;15.00;99.90;;;;;;5067865;28;20098;-63
2021/08/23 07:20:08;;;;;;;21.70;12.77;;;15.00;99.90;;;;;;5067309;28;20056;-63
2021/08/23 07:22:34;;;;;;;15.43;8.55;;;15.00;99.90;;;;;;5067660;28;20036;-63
2021/08/23 07:24:59;;;;;;;;;;;14.90;99.90;;;;;;5067627;28;20043;-63
2021/08/23 07:27:25;;;;;;;16.83;9.52;;;14.90;99.90;;;;;;5060848;28;19999;-63
2021/08/23 07:29:50;;;;;;;;;;;14.90;99.90;;;;;;5071782;28;20038;-63
2021/08/23 07:32:16;;;;;;;11.48;7.40;;;15.00;99.90;;;;;;5070408;28;20006;-62
2021/08/23 07:34:42;;;;;;;;;;;15.00;99.90;;;;;;5069846;28;20044;-63
2021/08/23 07:37:08;;;;;;;6.53;3.90;;;15.00;99.90;;;;;;5070763;28;19948;-63
2021/08/23 07:39:33;;;;;;;;;;;15.00;99.90;;;;;;5071231;28;20120;-63
2021/08/23 07:41:59;;;;;;;4.35;2.97;;;14.90;99.90;;;;;;5069996;28;19924;-74
2021/08/23 07:44:24;;;;;;;;;;;15.00;99.90;;;;;;5071301;28;20610;-67
2021/08/23 07:46:50;;;;;;;12.00;5.72;;;15.00;99.90;;;;;;5069985;28;20316;-68
2021/08/23 07:49:16;;;;;;;;;;;14.80;99.90;;;;;;5070832;28;20044;-68
2021/08/23 07:51:41;;;;;;;14.43;6.85;;;14.80;99.90;;;;;;5070650;28;20061;-67
2021/08/23 07:54:07;;;;;;;;;;;14.70;99.90;;;;;;5070778;28;20036;-68
2021/08/23 07:56:32;;;;;;;25.58;8.63;;;14.70;99.90;;;;;;5070865;28;20017;-67
2021/08/23 07:58:58;;;;;;;;;;;14.70;99.90;;;;;;5070329;28;20510;-69
2021/08/23 08:01:26;;;;;;;14.13;7.60;;;14.70;99.90;;;;;;5069836;28;20395;-68
2021/08/23 08:03:52;;;;;;;23.35;8.80;;;14.70;99.90;;;;;;5071228;28;20052;-67
2021/08/23 08:06:18;;;;;;;;;;;14.70;99.90;;;;;;5070668;28;20049;-66
2021/08/23 08:08:44;;;;;;;46.15;27.42;;;14.70;99.90;;;;;;5069731;28;19920;-66
2021/08/23 08:11:10;;;;;;;;;;;14.70;99.90;;;;;;5070286;28;20036;-67
2021/08/23 08:13:35;;;;;;;97.88;19.17;;;14.60;99.90;;;;;;5069961;28;19962;-68
2021/08/23 08:16:01;;;;;;;;;;;14.60;99.90;;;;;;5069521;28;20082;-69
2021/08/23 08:18:27;;;;;;;36.10;13.60;;;14.50;99.90;;;;;;5070154;28;19928;-68
2021/08/23 08:20:52;;;;;;;;;;;14.50;99.90;;;;;;5070759;28;20063;-69
2021/08/23 08:23:19;;;;;;;33.15;13.48;;;14.40;99.90;;;;;;5070585;28;19916;-67
2021/08/23 08:25:45;;;;;;;29.95;14.75;;;14.40;99.90;;;;;;5086436;28;20040;-67
2021/08/23 08:28:11;;;;;;;;;;;14.40;99.90;;;;;;5069804;28;20037;-66
2021/08/23 08:30:38;;;;;;;20.70;11.23;;;14.40;99.90;;;;;;5069585;28;19999;-67
2021/08/23 08:33:04;;;;;;;24.60;11.82;;;14.40;99.90;;;;;;5070504;28;20491;-67
2021/08/23 08:35:29;;;;;;;;;;;14.40;99.90;;;;;;5065048;28;20066;-67
2021/08/23 08:37:55;;;;;;;53.88;14.20;;;14.40;99.90;;;;;;5070507;28;20006;-67
2021/08/23 08:40:20;;;;;;;;;;;14.40;99.90;;;;;;5070237;28;20039;-67
2021/08/23 08:42:47;;;;;;;137.60;17.85;;;14.40;99.90;;;;;;5070186;28;19920;-67
2021/08/23 08:45:13;;;;;;;155.40;18.23;;;14.40;99.90;;;;;;5069076;28;20040;-67
2021/08/23 08:47:39;;;;;;;;;;;14.40;99.90;;;;;;5071664;28;20051;-67
2021/08/23 08:50:06;;;;;;;189.40;17.17;;;14.40;99.90;;;;;;5072718;28;19916;-68
2021/08/23 08:52:32;;;;;;;267.55;20.05;;;14.30;99.90;;;;;;5071320;28;20572;-67
2021/08/23 08:54:58;;;;;;;177.73;18.45;;;14.30;99.90;;;;;;5065270;28;20035;-67
2021/08/23 08:57:24;;;;;;;35.92;12.02;;;14.30;99.90;;;;;;5056060;28;20036;-66
2021/08/23 08:59:50;;;;;;;;;;;14.40;99.90;;;;;;5066070;28;20044;-67
2021/08/23 09:02:16;;;;;;;121.05;15.05;;;14.40;99.90;;;;;;5058746;28;19970;-67
2021/08/23 09:04:41;;;;;;;81.55;13.85;;;14.40;99.90;;;;;;5058065;28;20028;-67
2021/08/23 09:07:08;;;;;;;;;;;14.40;99.90;;;;;;5066223;28;20032;-67
2021/08/23 09:09:35;;;;;;;116.50;17.92;;;14.50;99.90;;;;;;5066794;28;19917;-67
2021/08/23 09:12:04;;;;;;;134.68;16.95;;;14.50;99.90;;;;;;5067606;28;20123;-67
2021/08/23 09:14:31;;;;;;;403.23;28.73;;;14.40;99.90;;;;;;5081707;28;20040;-67
2021/08/23 09:17:04;;;;;;;168.55;17.70;;;14.30;99.90;;;;;;5068411;28;20143;-67
2021/08/23 09:19:33;;;;;;;256.35;18.30;;;14.30;99.90;;;;;;5068754;28;20131;-67
2021/08/23 09:22:16;;;;;;;311.70;24.70;;;14.30;99.90;;;;;;5069285;28;20040;-67
2021/08/23 09:24:42;;;;;;;135.63;26.75;;;14.30;99.90;;;;;;5069212;28;20094;-67
2021/08/23 09:27:09;;;;;;;;;;;14.30;99.90;;;;;;5069105;28;20443;-67
2021/08/23 09:29:55;;;;;;;207.75;27.83;;;14.30;99.90;;;;;;5068987;28;19927;-67
2021/08/23 09:32:23;;;;;;;137.75;19.38;;;14.30;99.90;;;;;;5068957;28;20071;-67
2021/08/23 09:34:49;;;;;;;279.27;26.35;;;14.30;99.90;;;;;;5069068;28;20040;-67
2021/08/23 09:37:17;;;;;;;87.57;17.77;;;14.30;99.90;;;;;;5069414;28;20051;-67
2021/08/23 09:39:44;;;;;;;92.93;16.27;;;14.30;99.90;;;;;;5055698;28;20048;-67
2021/08/23 09:42:13;;;;;;;77.00;15.18;;;14.30;99.90;;;;;;5048518;28;20105;-67
2021/08/23 09:44:40;;;;;;;61.40;14.93;;;14.30;99.90;;;;;;5049205;28;20500;-66
2021/08/23 09:47:06;;;;;;;27.20;15.57;;;14.40;99.90;;;;;;5048329;28;20549;-67
2021/08/23 09:49:45;;;;;;;18.73;12.63;;;14.30;99.90;;;;;;5047362;28;20085;-67
2021/08/23 09:52:22;;;;;;;18.48;12.18;;;14.30;99.90;;;;;;5048344;28;20048;-68
2021/08/23 09:55:04;;;;;;;18.23;11.20;;;14.40;99.90;;;;;;5048505;28;20047;-67
2021/08/23 09:57:33;;;;;;;17.92;11.02;;;14.40;99.90;;;;;;5052344;28;20443;-67
2021/08/23 09:59:59;;;;;;;16.15;10.77;;;14.40;99.90;;;;;;5065078;28;20124;-67
2021/08/23 10:02:27;;;;;;;16.95;10.45;;;14.50;99.90;;;;;;5048016;28;20056;-67
2021/08/23 10:04:54;;;;;;;12.82;9.30;;;14.50;99.90;;;;;;5048856;28;20037;-67
2021/08/23 10:07:21;;;;;;;14.43;9.63;;;14.50;99.90;;;;;;5053472;28;20105;-67
2021/08/23 10:09:49;;;;;;;16.08;10.10;;;14.50;99.90;;;;;;5065652;28;20041;-67
2021/08/23 10:12:15;;;;;;;15.25;10.38;;;14.60;99.90;;;;;;5057329;28;20045;-67
2021/08/23 10:14:43;;;;;;;21.65;13.55;;;14.60;99.90;;;;;;5067551;28;20040;-67
2021/08/23 10:17:10;;;;;;;17.90;12.40;;;14.50;99.90;;;;;;5069042;28;20044;-66
2021/08/23 10:19:37;;;;;;;17.35;11.23;;;14.40;99.90;;;;;;5069676;28;20075;-67
2021/08/23 10:22:03;;;;;;;18.25;12.77;;;14.50;99.90;;;;;;5065802;28;20044;-67
2021/08/23 10:24:30;;;;;;;18.80;13.23;;;14.50;99.90;;;;;;5064204;28;20040;-67
2021/08/23 10:26:57;;;;;;;22.48;14.13;;;14.50;99.90;;;;;;5070787;28;20056;-67
2021/08/23 10:29:23;;;;;;;19.75;13.80;;;14.50;99.90;;;;;;5063277;28;20531;-67
2021/08/23 10:31:49;;;;;;;;;;;14.50;99.90;;;;;;5060991;28;20117;-66
2021/08/23 10:34:28;;;;;;;24.70;15.38;;;14.50;99.90;;;;;;5057752;28;19917;-67
2021/08/23 10:36:54;;;;;;;31.23;17.38;;;14.50;99.90;;;;;;5070438;28;20040;-67
2021/08/23 10:39:25;;;;;;;27.55;16.98;;;14.50;99.90;;;;;;5059397;28;20037;-68
2021/08/23 10:41:52;;;;;;;29.48;17.25;;;14.50;99.90;;;;;;5062646;28;20037;-67
2021/08/23 10:44:31;;;;;;;34.90;18.15;;;14.50;99.90;;;;;;5062078;28;20040;-67
2021/08/23 10:47:17;;;;;;;34.97;19.52;;;14.50;99.90;;;;;;5054012;28;20053;-66
2021/08/23 10:49:46;;;;;;;45.03;19.45;;;14.50;99.90;;;;;;5051842;28;20131;-67
2021/08/23 10:52:13;;;;;;;73.22;22.83;;;14.40;99.90;;;;;;5051011;28;20045;-66
2021/08/23 10:54:41;;;;;;;58.50;24.23;;;14.40;99.90;;;;;;5059908;28;20648;-66
2021/08/23 10:57:10;;;;;;;55.50;22.20;;;14.30;99.90;;;;;;5067298;28;20687;-68
2021/08/23 10:59:50;;;;;;;36.03;21.20;;;14.40;99.90;;;;;;5066523;28;20050;-67
2021/08/23 11:02:32;;;;;;;37.60;19.55;;;14.40;99.90;;;;;;5066543;28;20048;-64
2021/08/23 11:05:01;;;;;;;52.53;23.17;;;14.40;99.90;;;;;;5060306;28;20040;-65
2021/08/23 11:07:31;;;;;;;36.65;21.67;;;14.40;99.90;;;;;;5067722;28;20575;-65
2021/08/23 11:10:15;;;;;;;44.88;22.40;;;14.40;99.90;;;;;;5068768;28;20098;-66
2021/08/23 11:12:42;;;;;;;59.60;24.92;;;14.40;99.90;;;;;;5078458;28;20048;-66
2021/08/23 11:15:20;;;;;;;33.15;20.63;;;14.40;99.90;;;;;;5058779;28;20036;-65
2021/08/23 11:17:59;;;;;;;39.97;22.42;;;14.40;99.90;;;;;;5060589;28;20497;-65
2021/08/23 11:20:30;;;;;;;42.78;23.60;;;14.40;99.90;;;;;;5056286;28;20064;-65
2021/08/23 11:22:59;;;;;;;69.72;25.33;;;14.50;99.90;;;;;;5060897;28;20056;-65
2021/08/23 11:25:36;;;;;;;52.47;23.15;;;14.50;99.90;;;;;;5057761;28;20049;-66
2021/08/23 11:28:26;;;;;;;44.15;22.55;;;14.40;99.90;;;;;;5058090;28;20623;-64
2021/08/23 11:30:54;;;;;;;86.72;30.23;;;14.40;99.90;;;;;;5054984;28;20072;-65
2021/08/23 11:33:34;;;;;;;52.83;25.42;;;14.30;99.90;;;;;;5057487;28;20091;-66
2021/08/23 11:36:02;;;;;;;64.40;29.60;;;14.30;99.90;;;;;;5059611;28;20036;-66
2021/08/23 11:38:33;;;;;;;53.95;25.15;;;14.30;99.90;;;;;;5057843;28;20037;-70
2021/08/23 11:40:59;;;;;;;46.08;24.30;;;14.30;99.90;;;;;;5058525;28;20037;-66
2021/08/23 11:43:27;;;;;;;38.13;22.00;;;14.40;99.90;;;;;;5057573;28;20049;-65
2021/08/23 11:45:53;;;;;;;43.60;23.50;;;14.40;99.90;;;;;;5057402;28;20061;-64
2021/08/23 11:48:19;;;;;;;37.35;22.65;;;14.50;99.90;;;;;;5060519;28;20100;-69
2021/08/23 11:50:44;;;;;;;;;;;14.50;99.90;;;;;;5060402;28;20413;-67
2021/08/23 11:53:12;;;;;;;42.70;23.23;;;14.50;99.90;;;;;;5058049;28;20046;-71
2021/08/23 11:55:43;;;;;;;41.47;23.42;;;14.50;99.90;;;;;;5056029;28;20033;-69
2021/08/23 11:58:11;;;;;;;35.38;21.42;;;14.50;99.90;;;;;;5058912;28;20037;-69
2021/08/23 12:00:39;;;;;;;46.42;26.02;;;14.60;99.90;;;;;;5061355;28;20037;-67
2021/08/23 12:03:11;;;;;;;37.75;22.05;;;14.50;99.90;;;;;;5059820;28;20067;-66
2021/08/23 12:05:43;;;;;;;33.25;20.20;;;14.60;99.90;;;;;;5060288;28;20110;-67
2021/08/23 12:08:21;;;;;;;34.63;20.92;;;14.60;99.90;;;;;;5057872;28;20439;-68
2021/08/23 12:10:52;;;;;;;34.28;20.33;;;14.60;99.90;;;;;;5056767;28;20067;-67
2021/08/23 12:13:19;;;;;;;35.33;21.98;;;14.60;99.90;;;;;;5057887;28;20036;-67
2021/08/23 12:15:55;;;;;;;32.63;19.83;;;14.60;99.90;;;;;;5063038;28;20175;-67
2021/08/23 12:18:43;;;;;;;31.38;19.58;;;14.70;99.90;;;;;;5066430;28;20127;-66
2021/08/23 12:21:29;;;;;;;33.17;20.40;;;14.60;99.90;;;;;;5067872;28;20094;-67
2021/08/23 12:23:56;;;;;;;35.90;20.27;;;14.60;99.90;;;;;;5069472;28;20093;-67
2021/08/23 12:26:40;;;;;;;27.63;18.33;;;14.70;99.90;;;;;;5068774;28;20049;-67
2021/08/23 12:29:24;;;;;;;30.27;19.05;;;14.70;99.90;;;;;;5066267;28;20053;-67
2021/08/23 12:32:07;;;;;;;36.15;21.20;;;14.70;99.90;;;;;;5065940;28;20044;-67
2021/08/23 12:34:47;;;;;;;28.90;19.17;;;14.70;99.90;;;;;;5064794;28;20619;-67
2021/08/23 12:37:14;;;;;;;31.63;19.67;;;14.70;99.90;;;;;;5066578;28;20040;-67
2021/08/23 12:39:44;;;;;;;31.90;20.17;;;14.70;99.90;;;;;;5064366;28;20488;-67
2021/08/23 12:42:10;;;;;;;30.08;18.23;;;14.70;99.90;;;;;;5064075;28;20094;-64
2021/08/23 12:44:36;;;;;;;;;;;14.70;99.90;;;;;;5062506;28;20100;-66
2021/08/23 12:47:02;;;;;;;30.85;20.40;;;14.80;99.90;;;;;;5062616;28;20480;-66
2021/08/23 12:49:27;;;;;;;;;;;14.80;99.90;;;;;;5062355;28;20037;-67
2021/08/23 12:51:53;;;;;;;28.40;18.13;;;15.00;99.90;;;;;;5061186;28;19987;-66
2021/08/23 12:54:20;;;;;;;27.77;18.75;;;15.00;99.90;;;;;;5060749;28;20041;-66
2021/08/23 12:56:47;;;;;;;27.10;17.08;;;15.10;99.90;;;;;;5059794;28;20045;-66